Time;durP1;ratioP1;P1;durP2;ratioP2;P2;SDS_P1;SDS_P2;PMS_P1;PMS_P2;Temp;Humidity;BMP_temperature;BMP_pressure;BME280_temperature;BME280_humidity;BME280_pressure;Samples;Min_cycle;Max_cycle;Signal;HPM_P1;HPM_P2
2022/09/28 00:01:56;;;;;;;;;;;13.10;90.90;;;;;;5113817;28;20341;-90
2022/09/28 00:04:22;;;;;;;;;;;13.20;91.10;;;;;;5113818;28;20408;-90
2022/09/28 00:06:47;;;;;;;;;;;13.30;91.30;;;;;;5109312;28;20303;-90
2022/09/28 00:09:13;;;;;;;;;;;13.30;91.30;;;;;;5112633;28;19936;-89
2022/09/28 00:11:39;;;;;;;;;;;13.40;91.20;;;;;;5110680;27;20058;-90
2022/09/28 00:14:06;;;;;;;;;;;13.50;91.10;;;;;;5134260;27;20436;-90
2022/09/28 00:16:33;;;;;;;;;;;13.50;91.10;;;;;;5124260;27;19984;-90
2022/09/28 00:18:59;;;;;;;;;;;13.60;91.20;;;;;;5113594;28;19983;-90
2022/09/28 00:21:26;;;;;;;;;;;13.60;91.10;;;;;;5124583;28;20319;-90
2022/09/28 00:26:37;;;;;;;;;;;13.60;90.60;;;;;;5113382;28;19955;-90
2022/09/28 00:29:03;;;;;;;;;;;13.60;90.60;;;;;;5113530;28;19947;-90
2022/09/28 00:31:31;;;;;;;;;;;13.50;90.60;;;;;;5125059;28;19945;-90
2022/09/28 00:33:57;;;;;;;;;;;13.30;90.00;;;;;;5134067;28;19940;-90
2022/09/28 00:36:23;;;;;;;;;;;13.10;90.00;;;;;;5126145;28;19949;-89
2022/09/28 00:38:49;;;;;;;;;;;13.10;90.70;;;;;;5113400;28;19940;-90
2022/09/28 00:41:15;;;;;;;;;;;13.10;91.00;;;;;;5106930;28;19966;-90
2022/09/28 00:43:40;;;;;;;;;;;13.20;91.20;;;;;;5113403;28;20306;-91
2022/09/28 00:46:13;;;;;;;;;;;13.30;91.20;;;;;;5113066;28;20017;-90
2022/09/28 00:48:40;;;;;;;;;;;13.30;91.00;;;;;;5113376;28;19937;-90
2022/09/28 00:51:07;;;;;;;;;;;13.10;90.80;;;;;;5121764;28;19961;-90
2022/09/28 00:53:36;;;;;;;;;;;13.00;90.90;;;;;;5133843;28;19978;-90
2022/09/28 00:56:10;;;;;;;;;;;13.00;90.90;;;;;;5118558;28;20007;-90
2022/09/28 00:58:44;;;;;;;;;;;12.80;90.50;;;;;;5126535;28;20031;-90
2022/09/28 01:01:10;;;;;;;;;;;12.80;91.20;;;;;;5133706;28;19964;-90
2022/09/28 01:03:36;;;;;;;;;;;12.70;91.80;;;;;;5133983;28;19945;-90
2022/09/28 01:06:03;;;;;;;;;;;12.70;92.10;;;;;;5118956;28;19949;-90
2022/09/28 01:08:30;;;;;;;;;;;12.80;92.30;;;;;;5106503;28;19955;-90
2022/09/28 01:10:58;;;;;;;;;;;12.90;92.30;;;;;;5117154;27;19948;-89
2022/09/28 01:13:23;;;;;;;;;;;13.10;92.30;;;;;;5135720;27;19991;-90
2022/09/28 01:16:07;;;;;;;;;;;13.20;91.90;;;;;;5133550;27;19974;-91
2022/09/28 01:18:39;;;;;;;;;;;13.30;91.40;;;;;;5116932;28;19945;-90
2022/09/28 01:21:21;;;;;;;;;;;13.40;91.40;;;;;;5116817;28;20058;-90
2022/09/28 01:23:59;;;;;;;;;;;13.40;91.10;;;;;;5116843;28;19943;-90
2022/09/28 01:26:30;;;;;;;;;;;13.50;90.80;;;;;;5113538;28;19959;-90
2022/09/28 01:28:59;;;;;;;;;;;13.60;90.00;;;;;;5130285;27;19969;-90
2022/09/28 01:31:28;;;;;;;;;;;13.50;90.00;;;;;;5137235;27;19982;-90
2022/09/28 01:33:56;;;;;;;;;;;13.60;90.00;;;;;;5137215;27;19936;-91
2022/09/28 01:36:24;;;;;;;;;;;13.60;89.90;;;;;;5105494;28;19968;-90
2022/09/28 01:39:19;;;;;;;;;;;13.60;89.80;;;;;;5094856;28;19951;-90
2022/09/28 01:41:47;;;;;;;;;;;13.60;89.80;;;;;;5098844;28;19966;-90
2022/09/28 01:44:15;;;;;;;;;;;13.50;89.80;;;;;;5116464;28;19946;-90
2022/09/28 01:46:43;;;;;;;;;;;13.40;89.70;;;;;;5111048;28;20007;-90
2022/09/28 01:49:18;;;;;;;;;;;13.30;89.90;;;;;;5114403;28;19983;-90
2022/09/28 01:51:48;;;;;;;;;;;13.30;90.00;;;;;;5116158;28;19957;-90
2022/09/28 01:54:20;;;;;;;;;;;13.20;90.30;;;;;;5115987;28;19941;-90
2022/09/28 01:56:54;;;;;;;;;;;13.30;90.40;;;;;;5108087;28;19952;-89
2022/09/28 01:59:31;;;;;;;;;;;13.30;90.50;;;;;;5116136;28;19939;-91
2022/09/28 02:02:03;;;;;;;;;;;13.30;90.70;;;;;;5116042;28;20065;-91
2022/09/28 02:04:31;;;;;;;;;;;13.40;90.80;;;;;;5115837;28;19946;-90
2022/09/28 02:07:04;;;;;;;;;;;13.40;90.70;;;;;;5096776;28;20013;-91
2022/09/28 02:09:50;;;;;;;;;;;13.60;90.50;;;;;;5097625;28;19942;-90
2022/09/28 02:12:22;;;;;;;;;;;13.60;90.00;;;;;;5125697;27;20009;-90
2022/09/28 02:14:48;;;;;;;;;;;13.70;89.60;;;;;;5121303;27;19983;-90
2022/09/28 02:17:15;;;;;;;;;;;13.70;89.40;;;;;;5108884;28;19954;-89
2022/09/28 02:19:41;;;;;;;;;;;13.60;89.70;;;;;;5115761;28;19992;-89
2022/09/28 02:22:12;;;;;;;;;;;13.60;90.00;;;;;;5115341;28;19961;-89
2022/09/28 02:24:38;;;;;;;;;;;13.60;90.00;;;;;;5093761;28;19953;-90
2022/09/28 02:27:26;;;;;;;;;;;13.60;89.90;;;;;;5111041;28;19965;-91
2022/09/28 02:29:52;;;;;;;;;;;13.60;89.90;;;;;;5077085;28;19944;-90
2022/09/28 02:32:18;;;;;;;;;;;13.50;89.60;;;;;;5110965;28;20380;-90
2022/09/28 02:34:44;;;;;;;;;;;13.40;89.90;;;;;;5115116;28;19951;-90
2022/09/28 02:37:10;;;;;;;;;;;13.30;90.40;;;;;;5107217;28;19948;-90
2022/09/28 02:39:35;;;;;;;;;;;13.30;90.60;;;;;;5115313;28;20365;-90
2022/09/28 02:42:04;;;;;;;;;;;13.40;90.80;;;;;;5119917;27;19954;-90
2022/09/28 02:44:48;;;;;;;;;;;13.40;90.70;;;;;;5115223;28;19963;-89
2022/09/28 02:47:14;;;;;;;;;;;13.40;90.50;;;;;;5130671;27;19953;-90
2022/09/28 02:49:42;;;;;;;;;;;13.50;90.30;;;;;;5135684;27;19944;-90
2022/09/28 02:52:12;;;;;;;;;;;13.40;90.40;;;;;;5129899;27;20434;-90
2022/09/28 02:54:44;;;;;;;;;;;13.50;90.50;;;;;;5115087;28;19979;-90
2022/09/28 02:57:29;;;;;;;;;;;13.40;90.40;;;;;;5123894;27;19944;-91
2022/09/28 02:59:57;;;;;;;;;;;13.40;90.20;;;;;;5135539;27;19972;-90
2022/09/28 03:02:41;;;;;;;;;;;13.20;90.20;;;;;;5106069;28;19966;-90
2022/09/28 03:05:13;;;;;;;;;;;13.00;90.40;;;;;;5093952;28;20383;-90
2022/09/28 03:07:38;;;;;;;;;;;12.90;90.70;;;;;;5094480;28;20031;-91
2022/09/28 03:10:12;;;;;;;;;;;12.90;91.00;;;;;;5094506;28;20575;-90
2022/09/28 03:12:38;;;;;;;;;;;12.90;91.20;;;;;;5122493;27;19999;-90
2022/09/28 03:15:06;;;;;;;;;;;12.90;91.50;;;;;;5135146;27;19972;-90
2022/09/28 03:17:32;;;;;;;;;;;12.90;91.40;;;;;;5135279;27;19944;-90
2022/09/28 03:19:57;;;;;;;;;;;12.90;91.50;;;;;;5135234;27;19996;-90
2022/09/28 03:22:23;;;;;;;;;;;13.00;91.50;;;;;;5125813;27;20326;-90
2022/09/28 03:24:48;;;;;;;;;;;13.10;91.50;;;;;;5114558;28;20397;-90
2022/09/28 03:27:14;;;;;;;;;;;13.20;91.40;;;;;;5126118;27;20387;-90
2022/09/28 03:29:39;;;;;;;;;;;13.20;91.40;;;;;;5134968;27;20414;-91
2022/09/28 03:32:05;;;;;;;;;;;13.30;91.10;;;;;;5127600;27;20391;-91
2022/09/28 03:34:31;;;;;;;;;;;13.30;91.10;;;;;;5114347;28;20376;-90
2022/09/28 03:36:56;;;;;;;;;;;13.40;91.00;;;;;;5114381;28;19944;-90
2022/09/28 03:39:22;;;;;;;;;;;13.40;90.80;;;;;;5123161;27;20301;-91
2022/09/28 03:41:47;;;;;;;;;;;13.40;90.60;;;;;;5119242;27;20490;-90
2022/09/28 03:44:13;;;;;;;;;;;13.40;90.30;;;;;;5112779;28;20345;-90
2022/09/28 03:46:38;;;;;;;;;;;13.50;90.20;;;;;;5114149;28;20424;-90
2022/09/28 03:49:04;;;;;;;;;;;13.40;90.40;;;;;;5128061;27;19988;-91
2022/09/28 03:51:29;;;;;;;;;;;13.40;90.40;;;;;;5127724;27;20042;-90
2022/09/28 03:53:55;;;;;;;;;;;13.40;90.30;;;;;;5115097;27;19998;-90
2022/09/28 03:56:20;;;;;;;;;;;13.30;90.10;;;;;;5115221;27;20477;-90
2022/09/28 03:58:46;;;;;;;;;;;13.20;90.50;;;;;;5131312;27;20412;-90
2022/09/28 04:01:12;;;;;;;;;;;13.20;90.50;;;;;;5134322;27;20439;-90
2022/09/28 04:03:38;;;;;;;;;;;13.30;90.50;;;;;;5111671;27;19946;-90
2022/09/28 04:06:03;;;;;;;;;;;13.30;90.50;;;;;;5117044;27;19945;-90
2022/09/28 04:08:29;;;;;;;;;;;13.30;90.40;;;;;;5134277;27;19939;-90
2022/09/28 04:10:56;;;;;;;;;;;13.30;90.50;;;;;;5131945;27;20457;-90
2022/09/28 04:13:21;;;;;;;;;;;13.30;90.60;;;;;;5107343;28;19945;-90
2022/09/28 04:15:51;;;;;;;;;;;13.30;90.40;;;;;;5112325;28;20314;-90
2022/09/28 04:18:17;;;;;;;;;;;13.20;90.40;;;;;;5113629;28;20068;-90
2022/09/28 04:20:44;;;;;;;;;;;13.10;90.50;;;;;;5107569;28;20061;-90
2022/09/28 04:23:10;;;;;;;;;;;12.90;90.90;;;;;;5098669;28;19939;-90
2022/09/28 04:25:35;;;;;;;;;;;12.90;91.40;;;;;;5094912;28;20413;-90
2022/09/28 04:30:46;;;;;;;;;;;13.00;91.70;;;;;;5100431;28;20421;-90
2022/09/28 04:33:11;;;;;;;;;;;13.10;91.70;;;;;;5101325;28;20403;-90
2022/09/28 04:35:37;;;;;;;;;;;13.20;91.40;;;;;;5112252;28;19946;-90
2022/09/28 04:38:02;;;;;;;;;;;13.30;91.20;;;;;;5098959;28;19979;-90
2022/09/28 04:40:28;;;;;;;;;;;13.30;91.00;;;;;;5105557;28;19960;-90
2022/09/28 04:42:54;;;;;;;;;;;13.40;90.80;;;;;;5128259;27;19953;-90
2022/09/28 04:45:20;;;;;;;;;;;13.50;90.70;;;;;;5138109;27;19986;-90
2022/09/28 04:47:46;;;;;;;;;;;13.50;90.70;;;;;;5133048;27;19938;-90
2022/09/28 04:50:11;;;;;;;;;;;13.50;90.70;;;;;;5116915;27;20020;-91
2022/09/28 04:52:37;;;;;;;;;;;13.40;90.80;;;;;;5136847;27;20242;-90
2022/09/28 04:55:03;;;;;;;;;;;13.40;90.90;;;;;;5137572;27;20467;-90
2022/09/28 04:57:29;;;;;;;;;;;13.40;91.10;;;;;;5116978;27;19952;-90
2022/09/28 04:59:54;;;;;;;;;;;13.40;91.20;;;;;;5124414;27;19945;-90
2022/09/28 05:02:20;;;;;;;;;;;13.30;91.20;;;;;;5137339;27;19962;-90
2022/09/28 05:04:45;;;;;;;;;;;13.30;91.20;;;;;;5129544;27;19951;-91
2022/09/28 05:07:11;;;;;;;;;;;13.30;91.30;;;;;;5133490;27;19946;-90
2022/09/28 05:09:36;;;;;;;;;;;13.40;91.20;;;;;;5117643;27;19950;-90
2022/09/28 05:12:02;;;;;;;;;;;13.50;91.20;;;;;;5114120;27;19948;-90
2022/09/28 05:14:28;;;;;;;;;;;13.60;90.90;;;;;;5125451;27;20320;-90
2022/09/28 05:16:53;;;;;;;;;;;13.70;90.80;;;;;;5116995;28;19933;-90
2022/09/28 05:19:19;;;;;;;;;;;13.80;90.60;;;;;;5117001;28;19944;-90
2022/09/28 05:21:45;;;;;;;;;;;13.80;90.40;;;;;;5125752;27;20047;-90
2022/09/28 05:24:11;;;;;;;;;;;13.90;90.10;;;;;;5111109;27;19943;-90
2022/09/28 05:26:37;;;;;;;;;;;13.90;89.90;;;;;;5119586;27;20390;-90
2022/09/28 05:29:02;;;;;;;;;;;13.90;89.90;;;;;;5130920;27;19942;-90
2022/09/28 05:31:28;;;;;;;;;;;13.90;90.00;;;;;;5106123;28;19947;-90
2022/09/28 05:33:54;;;;;;;;;;;14.00;90.10;;;;;;5103246;28;19948;-90
2022/09/28 05:36:19;;;;;;;;;;;14.00;90.00;;;;;;5102283;28;20071;-90
2022/09/28 05:38:45;;;;;;;;;;;13.90;90.00;;;;;;5106198;28;20544;-90
2022/09/28 05:41:11;;;;;;;;;;;13.80;90.20;;;;;;5088249;28;20041;-90
2022/09/28 05:43:37;;;;;;;;;;;13.60;90.40;;;;;;5111243;27;19941;-90
2022/09/28 05:46:03;;;;;;;;;;;13.60;90.70;;;;;;5115504;28;19942;-90
2022/09/28 05:48:28;;;;;;;;;;;13.70;90.70;;;;;;5111799;28;19952;-90
2022/09/28 05:50:54;;;;;;;;;;;13.80;90.70;;;;;;5110674;28;20011;-90
2022/09/28 05:53:20;;;;;;;;;;;13.90;90.40;;;;;;5105156;28;19949;-91
2022/09/28 05:55:46;;;;;;;;;;;14.00;90.10;;;;;;5102217;28;20036;-90
2022/09/28 05:58:11;;;;;;;;;;;14.10;89.50;;;;;;5101160;28;19943;-90
2022/09/28 06:00:37;;;;;;;;;;;14.10;88.90;;;;;;5107288;28;20451;-91
2022/09/28 06:03:07;;;;;;;;;;;14.30;88.20;;;;;;5113197;28;19942;-90
2022/09/28 06:05:34;;;;;;;;;;;14.30;87.50;;;;;;5109241;28;19956;-90
2022/09/28 06:07:59;;;;;;;;;;;14.40;86.80;;;;;;5113266;28;20431;-90
2022/09/28 06:10:26;;;;;;;;;;;14.40;86.10;;;;;;5103522;28;19944;-90
2022/09/28 06:12:52;;;;;;;;;;;14.50;85.50;;;;;;5110933;28;19955;-89
2022/09/28 06:15:17;;;;;;;;;;;14.60;85.10;;;;;;5110403;28;20067;-89
2022/09/28 06:17:43;;;;;;;;;;;14.60;84.10;;;;;;5113849;28;20038;-89
2022/09/28 06:20:10;;;;;;;;;;;14.70;83.60;;;;;;5114480;28;19999;-88
2022/09/28 06:22:35;;;;;;;;;;;14.70;83.50;;;;;;5105023;28;19973;-90
2022/09/28 06:25:01;;;;;;;;;;;14.80;83.30;;;;;;5111761;28;19949;-90
2022/09/28 06:27:26;;;;;;;;;;;14.80;83.50;;;;;;5098939;28;19980;-91
2022/09/28 06:29:52;;;;;;;;;;;14.80;83.80;;;;;;5097763;28;20042;-90
2022/09/28 06:32:18;;;;;;;;;;;14.90;84.00;;;;;;5109156;27;19987;-92
2022/09/28 06:34:43;;;;;;;;;;;14.90;83.80;;;;;;5098860;28;19954;-92
2022/09/28 06:37:09;;;;;;;;;;;15.00;83.70;;;;;;5112128;28;20059;-92
2022/09/28 06:39:34;;;;;;;;;;;15.00;83.50;;;;;;5101650;28;20325;-92
2022/09/28 06:42:02;;;;;;;;;;;15.00;83.70;;;;;;5108688;28;19965;-92
2022/09/28 06:44:28;;;;;;;;;;;15.10;83.50;;;;;;5098590;28;19944;-91
2022/09/28 06:46:54;;;;;;;;;;;15.10;83.40;;;;;;5105596;28;20413;-91
2022/09/28 06:49:20;;;;;;;;;;;15.10;83.30;;;;;;5091614;28;20606;-91
2022/09/28 06:51:46;;;;;;;;;;;15.10;83.00;;;;;;5087574;28;19963;-91
2022/09/28 06:54:11;;;;;;;;;;;15.10;82.80;;;;;;5112487;28;20310;-89
2022/09/28 06:56:37;;;;;;;;;;;15.20;82.00;;;;;;5111845;28;19947;-90
2022/09/28 06:59:02;;;;;;;;;;;15.20;82.00;;;;;;5109517;28;19996;-90
2022/09/28 07:01:28;;;;;;;;;;;15.20;82.00;;;;;;5099365;28;19974;-91
2022/09/28 07:03:53;;;;;;;;;;;15.30;81.50;;;;;;5100237;28;19958;-90
2022/09/28 07:06:22;;;;;;;;;;;15.30;80.90;;;;;;5109416;27;19956;-90
2022/09/28 07:08:48;;;;;;;;;;;15.40;80.20;;;;;;5082962;28;19954;-91
2022/09/28 07:11:14;;;;;;;;;;;15.50;79.60;;;;;;5112510;28;19993;-91
2022/09/28 07:13:40;;;;;;;;;;;15.60;79.30;;;;;;5111736;28;19951;-91
2022/09/28 07:16:06;;;;;;;;;;;15.60;78.40;;;;;;5094567;22;20396;-91
2022/09/28 07:18:31;;;;;;;;;;;15.70;78.10;;;;;;5058680;28;20471;-90
2022/09/28 07:20:57;;;;;;;;;;;15.70;76.70;;;;;;5057792;28;19959;-91
2022/09/28 07:23:25;;;;;;;;;;;15.80;76.40;;;;;;5065943;28;20075;-91
2022/09/28 07:25:50;;;;;;;;;;;15.80;75.80;;;;;;5074847;28;19944;-91
2022/09/28 07:28:16;;;;;;;;;;;15.80;75.10;;;;;;5083045;28;19960;-91
2022/09/28 07:30:43;;;;;;;;;;;15.80;75.20;;;;;;5088395;28;19941;-91
2022/09/28 07:33:11;;;;;;;;;;;15.80;75.60;;;;;;5080587;28;20031;-92
2022/09/28 07:35:37;;;;;;;;;;;15.80;75.50;;;;;;5059860;28;19946;-90
2022/09/28 07:38:04;;;;;;;;;;;15.80;74.90;;;;;;5079521;28;20408;-91
2022/09/28 07:43:15;;;;;;;;;;;15.80;74.50;;;;;;5081318;28;19946;-91
2022/09/28 07:45:44;;;;;;;;;;;15.80;74.50;;;;;;5089378;28;19951;-91
2022/09/28 07:48:09;;;;;;;;;;;15.90;73.70;;;;;;5085482;28;19980;-92
2022/09/28 07:50:35;;;;;;;;;;;15.90;73.80;;;;;;5086176;28;20033;-91
2022/09/28 07:53:00;;;;;;;;;;;16.00;73.20;;;;;;5065818;28;20033;-92
2022/09/28 07:55:26;;;;;;;;;;;16.10;73.10;;;;;;5045709;28;20067;-92
2022/09/28 07:57:55;;;;;;;;;;;16.20;73.20;;;;;;5058906;28;19947;-91
2022/09/28 08:00:21;;;;;;;;;;;16.20;73.00;;;;;;5081464;28;20391;-91
2022/09/28 08:02:47;;;;;;;;;;;16.30;72.70;;;;;;5054327;28;19952;-91
2022/09/28 08:05:12;;;;;;;;;;;16.40;72.20;;;;;;5067200;28;20034;-91
2022/09/28 08:07:38;;;;;;;;;;;16.40;72.00;;;;;;5081028;28;19955;-92
2022/09/28 08:10:04;;;;;;;;;;;16.60;71.70;;;;;;5065652;28;19987;-91
2022/09/28 08:12:30;;;;;;;;;;;16.70;72.00;;;;;;5059588;28;19944;-91
2022/09/28 08:14:55;;;;;;;;;;;16.80;71.90;;;;;;5067132;28;19966;-91
2022/09/28 08:17:21;;;;;;;;;;;16.90;70.90;;;;;;5077358;28;19947;-91
2022/09/28 08:22:31;;;;;;;;;;;17.20;69.80;;;;;;5083664;28;20012;-92
2022/09/28 08:24:56;;;;;;;;;;;17.30;69.30;;;;;;5067492;28;19981;-92
2022/09/28 08:27:22;;;;;;;;;;;17.40;68.10;;;;;;5072091;28;20345;-91
2022/09/28 08:29:47;;;;;;;;;;;17.40;67.60;;;;;;5066379;28;19953;-91
2022/09/28 08:32:13;;;;;;;;;;;17.40;67.10;;;;;;5069747;28;19954;-91
2022/09/28 08:34:40;;;;;;;;;;;17.40;67.50;;;;;;5077198;28;20046;-92
2022/09/28 08:37:07;;;;;;;;;;;17.50;68.10;;;;;;5083276;28;20027;-91
2022/09/28 08:39:34;;;;;;;;;;;17.50;66.90;;;;;;5058866;28;19955;-92
2022/09/28 08:42:02;;;;;;;;;;;17.50;67.50;;;;;;5071228;28;19970;-92
2022/09/28 08:44:31;;;;;;;;;;;17.50;66.00;;;;;;5072790;28;19967;-92
2022/09/28 08:47:06;;;;;;;;;;;17.50;66.40;;;;;;5057064;28;19950;-92
2022/09/28 08:49:35;;;;;;;;;;;17.50;66.50;;;;;;5056780;28;19952;-91
2022/09/28 08:52:03;;;;;;;;;;;17.60;66.40;;;;;;5067715;28;19992;-91
2022/09/28 08:54:32;;;;;;;;;;;17.60;66.30;;;;;;5049967;28;19946;-90
2022/09/28 08:57:02;;;;;;;;;;;17.70;65.90;;;;;;5069721;28;19949;-93
2022/09/28 08:59:34;;;;;;;;;;;17.80;66.30;;;;;;5069256;28;19951;-92
2022/09/28 09:02:02;;;;;;;;;;;17.80;65.30;;;;;;5072911;28;19978;-91
2022/09/28 09:04:28;;;;;;;;;;;17.80;63.60;;;;;;5061479;28;19961;-92
2022/09/28 09:07:13;;;;;;;;;;;17.90;64.20;;;;;;5061285;28;19947;-91
2022/09/28 09:09:51;;;;;;;;;;;17.90;63.30;;;;;;5066342;28;19970;-92
2022/09/28 09:12:20;;;;;;;;;;;18.00;64.30;;;;;;5071078;28;20064;-92
2022/09/28 09:14:52;;;;;;;;;;;18.00;63.80;;;;;;5070085;28;19982;-91
2022/09/28 09:17:25;;;;;;;;;;;18.10;63.60;;;;;;5064402;28;20700;-90
2022/09/28 09:19:53;;;;;;;;;;;18.20;63.30;;;;;;5064136;28;19949;-91
2022/09/28 09:22:24;;;;;;;;;;;18.30;63.30;;;;;;5068977;28;20445;-91
2022/09/28 09:24:53;;;;;;;;;;;18.40;63.30;;;;;;5066974;28;19946;-91
2022/09/28 09:27:19;;;;;;;;;;;18.50;62.10;;;;;;5078141;28;19992;-91
2022/09/28 09:30:03;;;;;;;;;;;18.60;62.50;;;;;;5049000;28;19986;-91
2022/09/28 09:32:32;;;;;;;;;;;18.70;62.30;;;;;;5066838;28;19947;-91
2022/09/28 09:35:21;;;;;;;;;;;18.70;61.30;;;;;;5070688;28;19951;-91
2022/09/28 09:37:55;;;;;;;;;;;18.80;61.10;;;;;;5037091;28;20019;-90
2022/09/28 09:40:40;;;;;;;;;;;18.90;60.80;;;;;;5068817;28;20475;-92
2022/09/28 09:43:09;;;;;;;;;;;18.90;60.80;;;;;;5071755;28;20321;-90
2022/09/28 09:45:53;;;;;;;;;;;19.00;60.50;;;;;;5084380;28;19990;-91
2022/09/28 09:48:24;;;;;;;;;;;19.10;60.00;;;;;;5073921;28;20420;-91
2022/09/28 09:50:52;;;;;;;;;;;19.20;59.50;;;;;;5063404;28;19958;-91
2022/09/28 09:53:20;;;;;;;;;;;19.30;59.00;;;;;;5057348;28;20395;-91
2022/09/28 09:55:49;;;;;;;;;;;19.20;58.80;;;;;;5074089;28;19947;-91
2022/09/28 09:58:14;;;;;;;;;;;19.30;58.70;;;;;;5080243;28;19984;-91
2022/09/28 10:00:42;;;;;;;;;;;19.50;59.10;;;;;;5074111;28;19949;-91
2022/09/28 10:03:15;;;;;;;;;;;19.50;59.70;;;;;;5071646;28;19946;-91
2022/09/28 10:05:42;;;;;;;;;;;19.60;60.20;;;;;;5072854;28;19984;-91
2022/09/28 10:08:08;;;;;;;;;;;19.50;59.40;;;;;;5074990;28;19941;-91
2022/09/28 10:10:35;;;;;;;;;;;19.60;59.70;;;;;;5078593;28;19965;-91
2022/09/28 10:13:01;;;;;;;;;;;19.70;58.50;;;;;;5081910;28;19945;-91
2022/09/28 10:15:27;;;;;;;;;;;19.80;58.10;;;;;;5070871;28;19979;-91
2022/09/28 10:17:54;;;;;;;;;;;19.90;57.70;;;;;;5075246;28;20033;-91
2022/09/28 10:20:21;;;;;;;;;;;20.00;58.40;;;;;;5073768;28;20405;-91
2022/09/28 10:22:48;;;;;;;;;;;20.20;57.00;;;;;;5075739;28;19994;-91
2022/09/28 10:25:14;;;;;;;;;;;20.10;56.60;;;;;;5056457;28;20414;-91
2022/09/28 10:27:44;;;;;;;;;;;20.00;56.20;;;;;;5074494;28;19948;-91
2022/09/28 10:30:09;;;;;;;;;;;19.90;57.50;;;;;;5074847;28;19995;-91
2022/09/28 10:32:39;;;;;;;;;;;19.90;56.90;;;;;;5074453;28;20330;-90
2022/09/28 10:35:13;;;;;;;;;;;19.80;57.50;;;;;;5074794;28;19937;-91
2022/09/28 10:37:53;;;;;;;;;;;19.90;57.40;;;;;;5056891;28;20038;-91
2022/09/28 10:40:31;;;;;;;;;;;20.00;57.30;;;;;;5074463;28;19958;-91
2022/09/28 10:43:17;;;;;;;;;;;20.20;58.50;;;;;;5076137;28;20044;-91
2022/09/28 10:45:43;;;;;;;;;;;20.10;57.00;;;;;;5074739;28;20011;-91
2022/09/28 10:48:15;;;;;;;;;;;20.10;56.90;;;;;;5074636;28;19969;-91
2022/09/28 10:50:41;;;;;;;;;;;20.10;56.10;;;;;;5055018;28;19947;-91
2022/09/28 10:53:25;;;;;;;;;;;20.00;56.60;;;;;;5076610;28;19948;-91
2022/09/28 10:56:01;;;;;;;;;;;20.10;56.20;;;;;;5070793;28;19950;-90
2022/09/28 10:58:28;;;;;;;;;;;20.30;56.50;;;;;;5054493;28;19943;-91
2022/09/28 11:00:58;;;;;;;;;;;20.30;55.70;;;;;;5071387;28;19963;-91
2022/09/28 11:03:27;;;;;;;;;;;20.30;55.80;;;;;;5073717;28;19983;-91
2022/09/28 11:05:55;;;;;;;;;;;20.50;55.70;;;;;;5074459;28;19983;-91
2022/09/28 11:08:23;;;;;;;;;;;20.60;56.30;;;;;;5074250;28;19957;-91
2022/09/28 11:10:59;;;;;;;;;;;20.60;57.30;;;;;;5054960;28;20442;-91
2022/09/28 11:13:26;;;;;;;;;;;20.80;57.20;;;;;;5054079;28;20035;-91
2022/09/28 11:15:52;;;;;;;;;;;20.90;58.40;;;;;;5058384;28;20415;-91
2022/09/28 11:18:17;;;;;;;;;;;21.20;56.80;;;;;;5074097;28;19989;-91
2022/09/28 11:20:43;;;;;;;;;;;21.60;55.00;;;;;;5073093;28;19947;-91
2022/09/28 11:23:14;;;;;;;;;;;21.90;53.90;;;;;;5071763;28;19953;-91
2022/09/28 11:25:40;;;;;;;;;;;22.40;52.80;;;;;;5058399;28;19989;-91
2022/09/28 11:28:16;;;;;;;;;;;22.90;53.60;;;;;;5064760;28;19949;-91
2022/09/28 11:30:47;;;;;;;;;;;23.30;50.60;;;;;;5065034;28;19945;-91
2022/09/28 11:33:17;;;;;;;;;;;23.80;48.90;;;;;;5061740;28;20068;-91
2022/09/28 11:35:45;;;;;;;;;;;24.00;48.40;;;;;;5068068;28;20007;-91
2022/09/28 11:38:27;;;;;;;;;;;24.10;47.10;;;;;;5062608;28;20031;-91
2022/09/28 11:41:00;;;;;;;;;;;24.10;47.90;;;;;;5059320;28;19959;-91
2022/09/28 11:43:26;;;;;;;;;;;24.10;47.60;;;;;;5061185;28;19953;-91
2022/09/28 11:46:02;;;;;;;;;;;24.20;47.80;;;;;;5060975;28;20475;-91
2022/09/28 11:48:33;;;;;;;;;;;24.30;48.10;;;;;;5071454;28;20016;-91
2022/09/28 11:51:10;;;;;;;;;;;24.60;46.80;;;;;;5061945;28;20064;-92
2022/09/28 11:53:41;;;;;;;;;;;24.80;46.30;;;;;;5069060;28;20021;-91
2022/09/28 11:56:17;;;;;;;;;;;25.10;45.80;;;;;;5067917;28;19946;-91
2022/09/28 11:58:51;;;;;;;;;;;25.10;45.10;;;;;;5070586;28;19946;-91
2022/09/28 12:01:19;;;;;;;;;;;24.80;45.70;;;;;;5075443;28;20043;-91
2022/09/28 12:03:50;;;;;;;;;;;24.70;45.20;;;;;;5063726;28;19953;-92
2022/09/28 12:06:22;;;;;;;;;;;24.70;45.30;;;;;;5066299;28;19950;-92
2022/09/28 12:08:52;;;;;;;;;;;24.60;47.70;;;;;;5070438;28;19948;-91
2022/09/28 12:11:25;;;;;;;;;;;24.30;47.00;;;;;;5058750;28;19958;-91
2022/09/28 12:13:52;;;;;;;;;;;23.90;47.90;;;;;;5068491;28;19977;-91
2022/09/28 12:16:25;;;;;;;;;;;23.70;48.80;;;;;;5062895;28;19973;-92
2022/09/28 12:18:58;;;;;;;;;;;23.50;50.20;;;;;;5058448;28;19957;-91
2022/09/28 12:21:27;;;;;;;;;;;23.40;51.70;;;;;;5068673;28;19964;-91
2022/09/28 12:23:54;;;;;;;;;;;23.30;50.40;;;;;;5064974;28;20324;-91
2022/09/28 12:26:26;;;;;;;;;;;23.30;50.10;;;;;;5063563;28;19951;-92
2022/09/28 12:28:55;;;;;;;;;;;23.10;50.30;;;;;;5068306;28;19939;-91
2022/09/28 12:31:41;;;;;;;;;;;22.90;50.70;;;;;;5064480;28;19956;-90
2022/09/28 12:34:08;;;;;;;;;;;22.60;50.90;;;;;;5059200;28;19945;-92
2022/09/28 12:36:34;;;;;;;;;;;22.20;52.10;;;;;;5067247;28;20034;-91
2022/09/28 12:39:06;;;;;;;;;;;22.10;52.70;;;;;;5072882;28;20364;-91
2022/09/28 12:42:01;;;;;;;;;;;22.30;53.70;;;;;;5072328;28;19957;-91
2022/09/28 12:44:34;;;;;;;;;;;22.50;52.50;;;;;;5068735;28;19967;-91
2022/09/28 12:47:08;;;;;;;;;;;22.80;52.00;;;;;;5072857;28;19959;-90
2022/09/28 12:49:52;;;;;;;;;;;22.90;51.10;;;;;;5056566;28;19943;-92
2022/09/28 12:52:20;;;;;;;;;;;23.30;50.20;;;;;;5068513;28;19964;-91
2022/09/28 12:55:04;;;;;;;;;;;23.60;50.00;;;;;;5084082;28;19979;-92
2022/09/28 12:57:36;;;;;;;;;;;23.80;49.20;;;;;;5047269;28;19941;-91
2022/09/28 13:00:10;;;;;;;;;;;24.00;48.90;;;;;;5064408;28;20288;-90
2022/09/28 13:02:36;;;;;;;;;;;24.20;48.00;;;;;;5061819;28;19962;-91
2022/09/28 13:05:13;;;;;;;;;;;24.30;48.00;;;;;;5060225;28;19947;-90
2022/09/28 13:07:52;;;;;;;;;;;24.30;48.20;;;;;;5068186;28;19953;-91
2022/09/28 13:10:32;;;;;;;;;;;24.70;47.20;;;;;;5069008;28;19953;-91
2022/09/28 13:13:16;;;;;;;;;;;25.40;45.70;;;;;;5065005;28;19945;-91
2022/09/28 13:15:41;;;;;;;;;;;25.60;44.70;;;;;;5067655;28;19999;-91
2022/09/28 13:18:12;;;;;;;;;;;25.60;44.90;;;;;;5057784;28;20298;-92
2022/09/28 13:20:50;;;;;;;;;;;25.70;45.10;;;;;;5067017;28;20032;-90
2022/09/28 13:23:19;;;;;;;;;;;25.60;45.60;;;;;;5066590;28;20423;-90
2022/09/28 13:26:03;;;;;;;;;;;25.50;46.20;;;;;;5065059;28;20030;-91
2022/09/28 13:28:30;;;;;;;;;;;25.30;45.80;;;;;;5068959;28;19946;-90
2022/09/28 13:30:56;;;;;;;;;;;25.30;45.60;;;;;;5065871;28;20391;-90
2022/09/28 13:33:27;;;;;;;;;;;25.20;46.20;;;;;;5061375;28;20429;-90
2022/09/28 13:35:53;;;;;;;;;;;24.80;45.70;;;;;;5069126;28;19941;-91
2022/09/28 13:38:19;;;;;;;;;;;24.50;47.70;;;;;;5075409;28;19953;-90
2022/09/28 13:41:03;;;;;;;;;;;24.40;48.20;;;;;;5065851;28;19949;-90
2022/09/28 13:43:34;;;;;;;;;;;24.30;47.80;;;;;;5067242;28;20001;-91
2022/09/28 13:46:07;;;;;;;;;;;24.00;49.30;;;;;;5068653;28;19955;-91
2022/09/28 13:48:43;;;;;;;;;;;23.80;49.60;;;;;;5067440;28;20007;-91
2022/09/28 13:51:17;;;;;;;;;;;23.60;50.30;;;;;;5066928;28;19968;-90
2022/09/28 13:53:54;;;;;;;;;;;23.50;51.60;;;;;;5060903;28;19972;-91
2022/09/28 13:56:20;;;;;;;;;;;23.20;51.70;;;;;;5057918;28;20003;-91
2022/09/28 13:58:47;;;;;;;;;;;23.00;52.40;;;;;;5062658;28;20425;-91
2022/09/28 14:01:16;;;;;;;;;;;22.90;53.00;;;;;;5072106;28;19968;-91
2022/09/28 14:03:53;;;;;;;;;;;22.80;53.10;;;;;;5066145;28;19942;-91
2022/09/28 14:06:26;;;;;;;;;;;22.60;54.20;;;;;;5066930;28;20387;-91
2022/09/28 14:09:11;;;;;;;;;;;22.40;54.20;;;;;;5062044;28;19995;-90
2022/09/28 14:11:41;;;;;;;;;;;22.40;54.70;;;;;;5064002;28;20451;-91
2022/09/28 14:14:06;;;;;;;;;;;22.30;55.10;;;;;;5065522;28;20424;-91
2022/09/28 14:16:33;;;;;;;;;;;22.00;55.50;;;;;;5062060;28;20003;-91
2022/09/28 14:19:02;;;;;;;;;;;21.90;55.90;;;;;;5072815;28;19953;-92
2022/09/28 14:21:33;;;;;;;;;;;21.80;55.80;;;;;;5047196;28;20333;-91
2022/09/28 14:23:59;;;;;;;;;;;21.80;56.70;;;;;;5072293;28;19951;-91
2022/09/28 14:26:43;;;;;;;;;;;21.70;57.80;;;;;;5072797;28;19948;-91
2022/09/28 14:29:15;;;;;;;;;;;21.50;57.80;;;;;;5063672;28;19968;-91
2022/09/28 14:31:42;;;;;;;;;;;21.10;58.20;;;;;;5065746;28;20425;-91
2022/09/28 14:34:21;;;;;;;;;;;21.00;59.70;;;;;;5075180;28;20000;-91
2022/09/28 14:42:19;;;;;;;;;;;20.80;60.80;;;;;;5063757;28;20015;-92
2022/09/28 14:45:03;;;;;;;;;;;20.80;61.40;;;;;;5069323;28;19946;-91